Time;durP1;ratioP1;P1;durP2;ratioP2;P2;SDS_P1;SDS_P2;PMS_P1;PMS_P2;Temp;Humidity;BMP_temperature;BMP_pressure;BME280_temperature;BME280_humidity;BME280_pressure;Samples;Min_cycle;Max_cycle;Signal;HPM_P1;HPM_P2
2022/09/24 00:01:31;;;;;;;43.35;30.55;;;13.80;99.90;;;;;;5153486;27;20047;-66
2022/09/24 00:04:05;;;;;;;48.05;30.98;;;13.90;99.90;;;;;;5152977;27;20513;-66
2022/09/24 00:06:43;;;;;;;45.92;31.40;;;13.80;99.90;;;;;;5153697;27;20035;-66
2022/09/24 00:09:09;;;;;;;47.38;31.60;;;13.80;99.90;;;;;;5152050;27;20031;-66
2022/09/24 00:11:35;;;;;;;42.20;30.70;;;13.90;99.90;;;;;;5153461;27;20035;-66
2022/09/24 00:14:00;;;;;;;43.22;30.88;;;13.80;99.90;;;;;;5153010;27;20044;-66
2022/09/24 00:16:30;;;;;;;44.88;31.25;;;13.90;99.90;;;;;;5153255;27;20035;-66
2022/09/24 00:18:57;;;;;;;47.50;30.13;;;13.80;99.90;;;;;;5153500;27;20042;-66
2022/09/24 00:21:28;;;;;;;45.03;31.42;;;13.90;99.90;;;;;;5153460;27;20035;-66
2022/09/24 00:23:57;;;;;;;44.30;31.58;;;13.90;99.90;;;;;;5153147;27;20125;-66
2022/09/24 00:29:09;;;;;;;47.60;31.55;;;13.90;99.90;;;;;;5153487;27;20390;-66
2022/09/24 00:31:35;;;;;;;46.25;31.85;;;13.90;99.90;;;;;;5153382;27;20037;-66
2022/09/24 00:34:01;;;;;;;48.50;32.10;;;13.90;99.90;;;;;;5153030;27;20035;-66
2022/09/24 00:36:27;;;;;;;50.08;31.73;;;13.90;99.90;;;;;;5153276;27;20117;-66
2022/09/24 00:38:55;;;;;;;51.35;32.28;;;13.90;99.90;;;;;;5153464;27;20122;-67
2022/09/24 00:41:24;;;;;;;47.80;32.05;;;13.90;99.90;;;;;;5153368;27;20074;-66
2022/09/24 00:43:50;;;;;;;47.38;32.63;;;13.90;99.90;;;;;;5152998;27;20107;-66
2022/09/24 00:46:39;;;;;;;54.45;33.00;;;13.80;99.90;;;;;;5156556;27;20444;-66
2022/09/24 00:49:11;;;;;;;51.78;32.60;;;13.80;99.90;;;;;;5155856;27;20541;-66
2022/09/24 00:51:38;;;;;;;50.42;32.95;;;13.90;99.90;;;;;;5157175;27;20114;-66
2022/09/24 00:54:08;;;;;;;50.70;33.72;;;13.80;99.90;;;;;;5155598;27;20510;-66
2022/09/24 00:56:37;;;;;;;46.35;33.30;;;13.80;99.90;;;;;;5156976;27;20491;-66
2022/09/24 00:59:05;;;;;;;50.85;33.42;;;13.80;99.90;;;;;;5156748;27;20085;-66
2022/09/24 01:01:31;;;;;;;48.75;33.42;;;13.80;99.90;;;;;;5157007;27;20111;-66
2022/09/24 01:03:58;;;;;;;53.20;34.35;;;13.80;99.90;;;;;;5156607;27;20060;-66
2022/09/24 01:06:25;;;;;;;52.58;33.33;;;13.80;99.90;;;;;;5156713;27;20039;-66
2022/09/24 01:08:51;;;;;;;54.05;34.00;;;13.80;99.90;;;;;;5156894;27;20440;-66
2022/09/24 01:11:46;;;;;;;53.38;34.10;;;13.80;99.90;;;;;;5156799;27;20050;-66
2022/09/24 01:14:44;;;;;;;47.95;34.08;;;13.80;99.90;;;;;;5156294;27;20455;-66
2022/09/24 01:17:28;;;;;;;52.97;34.63;;;13.80;99.90;;;;;;5145799;27;20077;-66
2022/09/24 01:20:19;;;;;;;46.75;33.15;;;13.80;99.90;;;;;;5156518;27;20111;-66
2022/09/24 01:22:53;;;;;;;54.05;33.92;;;13.80;99.90;;;;;;5156501;27;20713;-66
2022/09/24 01:25:40;;;;;;;53.08;34.83;;;13.80;99.90;;;;;;5155921;27;20049;-67
2022/09/24 01:28:53;;;;;;;51.22;32.42;;;13.80;99.90;;;;;;5156392;27;20038;-66
2022/09/24 01:31:28;;;;;;;;;;;13.80;99.90;;;;;;5146226;27;20122;-66
2022/09/24 01:33:57;;;;;;;52.30;33.25;;;13.80;99.90;;;;;;5155911;27;19922;-66
2022/09/24 01:36:25;;;;;;;54.88;34.80;;;13.80;99.90;;;;;;5156088;27;20027;-66
2022/09/24 01:38:53;;;;;;;51.72;34.25;;;13.80;99.90;;;;;;5154787;27;20038;-66
2022/09/24 01:41:20;;;;;;;50.90;33.97;;;13.80;99.90;;;;;;5155938;27;20038;-66
2022/09/24 01:43:47;;;;;;;56.03;33.97;;;13.80;99.90;;;;;;5155553;27;20057;-66
2022/09/24 01:46:18;;;;;;;55.75;34.55;;;13.70;99.90;;;;;;5156241;27;20083;-66
2022/09/24 01:48:44;;;;;;;51.20;32.63;;;13.80;99.90;;;;;;5156144;27;20058;-66
2022/09/24 01:51:19;;;;;;;53.20;34.30;;;13.80;99.90;;;;;;5156005;27;20505;-66
2022/09/24 01:53:57;;;;;;;51.58;34.45;;;13.80;99.90;;;;;;5153841;27;20510;-66
2022/09/24 01:56:29;;;;;;;53.42;33.88;;;13.80;99.90;;;;;;5155239;27;20034;-66
2022/09/24 01:59:08;;;;;;;53.33;34.60;;;13.80;99.90;;;;;;5155798;27;20049;-66
2022/09/24 02:01:54;;;;;;;51.70;34.03;;;13.80;99.90;;;;;;5155889;27;20096;-66
2022/09/24 02:04:21;;;;;;;52.47;33.08;;;13.80;99.90;;;;;;5154784;27;20046;-66
2022/09/24 02:06:58;;;;;;;48.50;32.67;;;13.80;99.90;;;;;;5155777;27;20045;-66
2022/09/24 02:09:36;;;;;;;52.70;34.08;;;13.80;99.90;;;;;;5155611;27;20043;-66
2022/09/24 02:12:15;;;;;;;52.78;34.40;;;13.80;99.90;;;;;;5155585;27;20042;-66
2022/09/24 02:14:53;;;;;;;52.50;35.05;;;13.70;99.90;;;;;;5154979;27;20521;-66
2022/09/24 02:17:20;;;;;;;53.30;33.95;;;13.80;99.90;;;;;;5155377;27;20486;-66
2022/09/24 02:19:48;;;;;;;60.88;34.95;;;13.70;99.90;;;;;;5155181;27;20514;-66
2022/09/24 02:22:16;;;;;;;50.33;33.13;;;13.70;99.90;;;;;;5155317;27;20031;-66
2022/09/24 02:24:51;;;;;;;52.33;32.50;;;13.80;99.90;;;;;;5154920;27;20031;-66
2022/09/24 02:27:18;;;;;;;50.88;32.63;;;13.80;99.90;;;;;;5155108;27;20043;-66
2022/09/24 02:29:45;;;;;;;55.60;33.67;;;13.80;99.90;;;;;;5155359;27;20062;-66
2022/09/24 02:32:14;;;;;;;55.83;32.28;;;13.80;99.90;;;;;;5155295;27;20038;-66
2022/09/24 02:34:45;;;;;;;56.75;33.15;;;13.70;99.90;;;;;;5154797;27;20117;-66
2022/09/24 02:37:13;;;;;;;58.63;34.30;;;13.70;99.90;;;;;;5154961;27;20491;-66
2022/09/24 02:39:40;;;;;;;53.15;33.20;;;13.80;99.90;;;;;;5153645;27;20517;-66
2022/09/24 02:42:08;;;;;;;52.75;33.28;;;13.70;99.90;;;;;;5153447;27;20034;-66
2022/09/24 02:44:37;;;;;;;53.17;33.90;;;13.70;99.90;;;;;;5154657;27;20035;-66
2022/09/24 02:47:03;;;;;;;56.63;35.38;;;13.70;99.90;;;;;;5154890;27;20075;-66
2022/09/24 02:49:29;;;;;;;53.72;34.08;;;13.70;99.90;;;;;;5154828;27;20074;-66
2022/09/24 02:51:54;;;;;;;53.10;34.10;;;13.70;99.90;;;;;;5153382;27;20073;-66
2022/09/24 02:54:21;;;;;;;56.28;34.58;;;13.70;99.90;;;;;;5154278;27;20478;-66
2022/09/24 02:56:47;;;;;;;56.05;34.70;;;13.70;99.90;;;;;;5153983;27;20510;-66
2022/09/24 02:59:13;;;;;;;57.05;35.80;;;13.70;99.90;;;;;;5154492;27;20039;-66
2022/09/24 03:01:39;;;;;;;55.42;33.80;;;13.70;99.90;;;;;;5154602;27;20042;-66
2022/09/24 03:04:04;;;;;;;55.72;35.05;;;13.70;99.90;;;;;;5153424;27;20027;-66
2022/09/24 03:06:30;;;;;;;57.63;35.08;;;13.70;99.90;;;;;;5154220;27;20034;-66
2022/09/24 03:08:56;;;;;;;57.80;34.33;;;13.70;99.90;;;;;;5154409;27;20031;-66
2022/09/24 03:11:22;;;;;;;57.30;35.38;;;13.70;99.90;;;;;;5154474;27;20052;-66
2022/09/24 03:13:48;;;;;;;57.40;35.58;;;13.70;99.90;;;;;;5152535;27;20074;-66
2022/09/24 03:16:16;;;;;;;54.20;35.38;;;13.70;99.90;;;;;;5154380;27;20406;-66
2022/09/24 03:18:41;;;;;;;59.13;35.65;;;13.70;99.90;;;;;;5154172;27;20042;-66
2022/09/24 03:21:10;;;;;;;58.05;35.35;;;13.70;99.90;;;;;;5152772;27;20065;-66
2022/09/24 03:23:36;;;;;;;56.75;37.25;;;13.70;99.90;;;;;;5154166;27;20038;-66
2022/09/24 03:26:03;;;;;;;63.80;37.75;;;13.70;99.90;;;;;;5153888;27;20031;-66
2022/09/24 03:28:30;;;;;;;58.67;36.55;;;13.70;99.90;;;;;;5154198;27;20034;-66
2022/09/24 03:31:01;;;;;;;59.85;37.80;;;13.70;99.90;;;;;;5154010;27;20035;-66
2022/09/24 03:33:28;;;;;;;60.10;37.38;;;13.70;99.90;;;;;;5153925;27;20038;-66
2022/09/24 03:36:00;;;;;;;56.65;36.50;;;13.70;99.90;;;;;;5153528;27;20047;-66
2022/09/24 03:38:28;;;;;;;59.65;37.03;;;13.70;99.90;;;;;;5153967;27;20084;-66
2022/09/24 03:40:54;;;;;;;59.70;37.45;;;13.70;99.90;;;;;;5153741;27;20039;-66
2022/09/24 03:43:19;;;;;;;57.88;37.08;;;13.70;99.90;;;;;;5153832;27;20133;-66
2022/09/24 03:45:45;;;;;;;61.85;37.95;;;13.60;99.90;;;;;;5153367;27;20033;-66
2022/09/24 03:48:11;;;;;;;58.28;37.08;;;13.70;99.90;;;;;;5152617;27;20090;-66
2022/09/24 03:50:37;;;;;;;58.22;36.00;;;13.60;99.90;;;;;;5152625;27;20038;-66
2022/09/24 03:53:03;;;;;;;57.75;36.38;;;13.70;99.90;;;;;;5152661;27;20046;-66
2022/09/24 03:55:29;;;;;;;57.95;38.00;;;13.70;99.90;;;;;;5152302;27;20045;-66
2022/09/24 03:57:54;;;;;;;61.72;38.25;;;13.60;99.90;;;;;;5153629;27;20491;-66
2022/09/24 04:00:22;;;;;;;55.00;35.28;;;13.70;99.90;;;;;;5152113;27;20050;-66
2022/09/24 04:02:48;;;;;;;56.08;36.35;;;13.70;99.90;;;;;;5153426;27;20412;-66
2022/09/24 04:05:14;;;;;;;58.85;37.72;;;13.70;99.90;;;;;;5153368;27;20034;-66
2022/09/24 04:07:41;;;;;;;57.85;37.13;;;13.60;99.90;;;;;;5153661;27;20031;-66
2022/09/24 04:10:07;;;;;;;58.67;37.13;;;13.70;99.90;;;;;;5153517;27;20047;-66
2022/09/24 04:12:33;;;;;;;56.05;37.47;;;13.70;99.90;;;;;;5153579;27;20043;-66
2022/09/24 04:15:01;;;;;;;59.15;37.92;;;13.70;99.90;;;;;;5153035;27;20413;-66
2022/09/24 04:17:30;;;;;;;60.97;37.30;;;13.70;99.90;;;;;;5157376;27;20042;-66
2022/09/24 04:19:56;;;;;;;56.83;37.28;;;13.70;99.90;;;;;;5156307;27;20051;-66
2022/09/24 04:22:22;;;;;;;57.60;37.15;;;13.60;99.90;;;;;;5157823;27;20379;-66
2022/09/24 04:24:47;;;;;;;58.28;37.42;;;13.70;99.90;;;;;;5157073;27;20167;-66
2022/09/24 04:27:13;;;;;;;56.58;36.80;;;13.60;99.90;;;;;;5156520;27;20121;-66
2022/09/24 04:29:38;;;;;;;61.72;37.00;;;13.60;99.90;;;;;;5157511;27;20052;-66
2022/09/24 04:32:04;;;;;;;56.97;36.28;;;13.60;99.90;;;;;;5157416;27;20054;-66
2022/09/24 04:34:29;;;;;;;53.47;35.20;;;13.60;99.90;;;;;;5156918;27;20031;-66
2022/09/24 04:36:55;;;;;;;51.80;35.47;;;13.60;99.90;;;;;;5157460;27;20210;-66
2022/09/24 04:39:25;;;;;;;54.88;36.45;;;13.60;99.90;;;;;;5157240;27;20045;-66
2022/09/24 04:41:51;;;;;;;57.55;36.22;;;13.60;99.90;;;;;;5157319;27;20034;-66
2022/09/24 04:44:16;;;;;;;57.50;35.97;;;13.60;99.90;;;;;;5156867;27;20080;-66
2022/09/24 04:46:42;;;;;;;57.15;36.30;;;13.60;99.90;;;;;;5157048;27;20122;-66
2022/09/24 04:49:08;;;;;;;60.03;36.80;;;13.60;99.90;;;;;;5157255;27;20042;-66
2022/09/24 04:51:34;;;;;;;57.35;36.65;;;13.60;99.90;;;;;;5157208;27;20039;-66
2022/09/24 04:54:01;;;;;;;57.90;36.78;;;13.60;99.90;;;;;;5156729;27;20538;-66
2022/09/24 04:56:27;;;;;;;61.33;37.38;;;13.60;99.90;;;;;;5157018;27;20389;-66
2022/09/24 04:58:53;;;;;;;53.78;35.15;;;13.60;99.90;;;;;;5155638;27;20034;-66
2022/09/24 05:01:19;;;;;;;53.50;35.80;;;13.60;99.90;;;;;;5156727;27;20042;-66
2022/09/24 05:03:45;;;;;;;53.50;35.53;;;13.60;99.90;;;;;;5156627;27;20113;-66
2022/09/24 05:06:11;;;;;;;59.00;36.30;;;13.60;99.90;;;;;;5155541;27;20459;-66
2022/09/24 05:08:37;;;;;;;52.58;35.17;;;13.60;99.90;;;;;;5156648;27;20035;-66
2022/09/24 05:11:02;;;;;;;51.10;33.47;;;13.60;99.90;;;;;;5155547;27;20107;-66
2022/09/24 05:13:28;;;;;;;55.60;33.80;;;13.60;99.90;;;;;;5156578;27;20038;-66
2022/09/24 05:15:53;;;;;;;53.33;34.38;;;13.60;99.90;;;;;;5156418;27;20049;-66
2022/09/24 05:18:19;;;;;;;54.75;35.45;;;13.60;99.90;;;;;;5156599;27;20039;-66
2022/09/24 05:20:44;;;;;;;51.78;34.30;;;13.60;99.90;;;;;;5156439;27;20518;-66
2022/09/24 05:23:10;;;;;;;55.00;36.20;;;13.60;99.90;;;;;;5156358;27;20443;-67
2022/09/24 05:27:09;;;;;;;57.78;34.97;;;13.60;99.90;;;;;;5156353;27;20058;-66
2022/09/24 05:28:24;;;;;;;51.45;32.83;;;13.60;99.90;;;;;;5155259;27;20160;-66
2022/09/24 05:30:49;;;;;;;52.78;33.95;;;13.60;99.90;;;;;;5155453;27;20042;-66
2022/09/24 05:33:15;;;;;;;53.22;33.65;;;13.60;99.90;;;;;;5153119;27;20035;-66
2022/09/24 05:35:41;;;;;;;53.42;33.28;;;13.60;99.90;;;;;;5153187;27;20061;-66
2022/09/24 05:38:06;;;;;;;53.80;32.10;;;13.60;99.90;;;;;;5153354;27;20494;-66
2022/09/24 05:40:47;;;;;;;50.83;31.50;;;13.60;99.90;;;;;;5154741;27;20121;-66
2022/09/24 05:43:13;;;;;;;51.28;32.35;;;13.60;99.90;;;;;;5156355;27;20062;-66
2022/09/24 05:45:38;;;;;;;51.83;32.97;;;13.60;99.90;;;;;;5155140;27;20039;-66
2022/09/24 05:48:04;;;;;;;47.47;31.00;;;13.60;99.90;;;;;;5156139;27;20038;-66
2022/09/24 05:50:33;;;;;;;49.83;31.23;;;13.60;99.90;;;;;;5154929;27;20121;-66
2022/09/24 05:53:02;;;;;;;48.95;31.00;;;13.60;99.90;;;;;;5155211;27;20035;-66
2022/09/24 05:55:28;;;;;;;52.05;31.98;;;13.70;99.90;;;;;;5154500;27;20118;-66
2022/09/24 05:57:54;;;;;;;51.33;32.05;;;13.70;99.90;;;;;;5153400;27;20073;-66
2022/09/24 06:00:20;;;;;;;50.38;30.95;;;13.70;99.90;;;;;;5155013;27;20035;-66
2022/09/24 06:02:45;;;;;;;46.60;30.80;;;13.70;99.90;;;;;;5155773;27;20034;-66
2022/09/24 06:05:11;;;;;;;46.50;32.33;;;13.70;99.90;;;;;;5155364;27;20035;-66
2022/09/24 06:07:37;;;;;;;47.13;31.42;;;13.70;99.90;;;;;;5155575;27;20114;-66
2022/09/24 06:10:06;;;;;;;47.35;30.77;;;13.70;99.90;;;;;;5155427;27;20121;-66
2022/09/24 06:12:33;;;;;;;50.35;30.67;;;13.70;99.90;;;;;;5155668;27;20047;-66
2022/09/24 06:15:00;;;;;;;48.38;29.90;;;13.70;99.90;;;;;;5155285;27;20049;-66
2022/09/24 06:17:26;;;;;;;52.70;31.67;;;13.70;99.90;;;;;;5155466;27;20053;-66
2022/09/24 06:19:51;;;;;;;49.05;30.83;;;13.70;99.90;;;;;;5155310;27;20062;-66
2022/09/24 06:22:17;;;;;;;50.05;30.75;;;13.70;99.90;;;;;;5155162;27;20506;-66
2022/09/24 06:24:42;;;;;;;52.80;31.92;;;13.70;99.90;;;;;;5155161;27;20405;-66
2022/09/24 06:27:08;;;;;;;51.88;30.42;;;13.70;99.90;;;;;;5155394;27;20183;-66
2022/09/24 06:29:34;;;;;;;49.70;31.25;;;13.70;99.90;;;;;;5153766;27;20054;-66
2022/09/24 06:32:00;;;;;;;52.85;30.55;;;13.80;99.90;;;;;;5155136;27;20053;-66
2022/09/24 06:34:26;;;;;;;47.50;29.45;;;13.70;99.90;;;;;;5150175;27;20043;-67
2022/09/24 06:36:55;;;;;;;48.55;30.02;;;13.80;99.90;;;;;;5154186;27;20031;-66
2022/09/24 06:39:22;;;;;;;46.38;28.92;;;13.80;99.90;;;;;;5148036;27;20043;-67
2022/09/24 06:41:50;;;;;;;50.90;29.75;;;13.80;99.90;;;;;;5154135;27;20113;-67
2022/09/24 06:44:16;;;;;;;52.17;29.63;;;13.80;99.90;;;;;;5153606;27;20038;-66
2022/09/24 06:46:42;;;;;;;47.75;28.92;;;13.80;99.90;;;;;;5143175;27;20109;-67
2022/09/24 06:49:07;;;;;;;46.33;28.60;;;13.80;99.90;;;;;;5149689;27;20631;-67
2022/09/24 06:51:33;;;;;;;47.20;29.33;;;13.80;99.90;;;;;;5152250;27;20062;-67
2022/09/24 06:53:58;;;;;;;49.78;29.15;;;13.80;99.90;;;;;;5153556;27;20261;-67
2022/09/24 06:56:24;;;;;;;47.72;28.58;;;13.80;99.90;;;;;;5138796;27;20547;-67
2022/09/24 06:58:50;;;;;;;49.53;29.40;;;13.90;99.90;;;;;;5153490;27;20611;-67
2022/09/24 07:01:16;;;;;;;46.45;28.50;;;13.80;99.90;;;;;;5153360;27;20130;-67
2022/09/24 07:03:41;;;;;;;47.80;29.85;;;13.90;99.90;;;;;;5151916;27;20035;-67
2022/09/24 07:06:07;;;;;;;45.92;28.30;;;13.90;99.90;;;;;;5152990;27;20046;-66
2022/09/24 07:08:33;;;;;;;48.13;29.33;;;13.90;99.90;;;;;;5153590;27;20056;-66
2022/09/24 07:10:59;;;;;;;50.17;28.88;;;13.90;99.90;;;;;;5151997;27;20043;-67
2022/09/24 07:13:25;;;;;;;49.08;29.15;;;13.90;99.90;;;;;;5138428;27;20038;-67
2022/09/24 07:15:51;;;;;;;51.40;30.33;;;13.90;99.90;;;;;;5151711;27;20035;-67
2022/09/24 07:18:18;;;;;;;49.03;28.42;;;14.00;99.90;;;;;;5153135;27;20062;-67
2022/09/24 07:20:44;;;;;;;54.60;29.92;;;14.00;99.90;;;;;;5153077;27;20035;-67
2022/09/24 07:23:10;;;;;;;53.42;30.50;;;14.00;99.90;;;;;;5151520;27;20451;-66
2022/09/24 07:25:37;;;;;;;53.85;29.65;;;14.00;99.90;;;;;;5152922;27;20121;-67
2022/09/24 07:28:08;;;;;;;52.72;29.98;;;14.00;99.90;;;;;;5151877;27;20129;-67
2022/09/24 07:30:35;;;;;;;52.22;29.73;;;14.00;99.90;;;;;;5139065;27;20515;-67
2022/09/24 07:33:00;;;;;;;48.03;28.70;;;14.00;99.90;;;;;;5152842;27;20458;-67
2022/09/24 07:35:27;;;;;;;47.70;29.35;;;14.00;99.90;;;;;;5152541;27;20066;-67
2022/09/24 07:38:05;;;;;;;48.67;29.95;;;14.00;99.90;;;;;;5153194;27;20042;-67
2022/09/24 07:40:31;;;;;;;48.35;28.15;;;14.00;99.90;;;;;;5152741;27;20642;-68
2022/09/24 07:42:58;;;;;;;51.25;28.77;;;14.00;99.90;;;;;;5152826;27;20037;-69
2022/09/24 07:45:27;;;;;;;53.45;31.08;;;14.00;99.90;;;;;;5149393;27;20049;-69
2022/09/24 07:48:01;;;;;;;51.38;28.50;;;14.10;99.90;;;;;;5139238;27;20064;-69
2022/09/24 07:50:29;;;;;;;50.08;28.08;;;14.10;99.90;;;;;;5150882;27;20107;-69
2022/09/24 07:52:55;;;;;;;50.65;30.05;;;14.10;99.90;;;;;;5151591;27;20072;-69
2022/09/24 07:55:21;;;;;;;49.50;29.60;;;14.10;99.90;;;;;;5153223;27;20042;-69
2022/09/24 07:57:48;;;;;;;46.70;27.17;;;14.00;99.90;;;;;;5152396;27;20034;-70
2022/09/24 08:00:16;;;;;;;48.05;28.38;;;14.00;99.90;;;;;;5153424;27;20503;-69
2022/09/24 08:02:44;;;;;;;49.75;28.50;;;14.10;99.90;;;;;;5152537;27;20039;-69
2022/09/24 08:05:11;;;;;;;46.42;26.75;;;14.10;99.90;;;;;;5153347;27;20038;-70
2022/09/24 08:07:36;;;;;;;40.92;25.13;;;14.10;99.90;;;;;;5152470;27;20435;-69
2022/09/24 08:10:02;;;;;;;42.90;26.23;;;14.00;99.90;;;;;;5153496;27;20043;-69
2022/09/24 08:12:28;;;;;;;40.10;23.75;;;14.10;99.90;;;;;;5153439;27;20043;-68
2022/09/24 08:14:53;;;;;;;38.08;23.70;;;14.10;99.90;;;;;;5153024;27;20460;-68
2022/09/24 08:17:19;;;;;;;35.40;22.48;;;14.10;99.90;;;;;;5152042;27;20034;-69
2022/09/24 08:19:45;;;;;;;35.25;22.10;;;14.10;99.90;;;;;;5153454;27;20150;-69
2022/09/24 08:22:13;;;;;;;34.95;20.75;;;14.10;99.90;;;;;;5152374;27;20167;-68
2022/09/24 08:24:39;;;;;;;30.30;20.35;;;14.10;99.90;;;;;;5153085;27;20383;-68
2022/09/24 08:27:05;;;;;;;32.05;20.42;;;14.10;99.90;;;;;;5152226;27;20038;-68
2022/09/24 08:29:30;;;;;;;29.77;19.25;;;14.10;99.90;;;;;;5153198;27;20118;-68
2022/09/24 08:31:56;;;;;;;30.98;20.42;;;14.10;99.90;;;;;;5153190;27;20512;-68
2022/09/24 08:34:22;;;;;;;30.52;19.88;;;14.10;99.90;;;;;;5152977;27;20041;-68
2022/09/24 08:36:49;;;;;;;32.08;20.13;;;14.10;99.90;;;;;;5153339;27;20065;-68
2022/09/24 08:39:14;;;;;;;31.50;19.98;;;14.10;99.90;;;;;;5143800;27;20067;-68
2022/09/24 08:41:52;;;;;;;30.80;18.60;;;14.10;99.90;;;;;;5143838;27;20567;-68
2022/09/24 08:47:32;;;;;;;29.23;18.42;;;14.10;99.90;;;;;;5143337;27;20039;-68
2022/09/24 08:50:14;;;;;;;27.80;17.85;;;14.20;99.90;;;;;;5142445;27;20039;-68
2022/09/24 08:52:48;;;;;;;28.63;18.00;;;14.30;99.90;;;;;;5132423;27;20047;-68
2022/09/24 08:55:22;;;;;;;26.33;16.98;;;14.30;99.90;;;;;;5141099;27;20042;-67
2022/09/24 08:58:00;;;;;;;28.92;17.52;;;14.40;99.90;;;;;;5143507;27;20045;-68
2022/09/24 09:00:30;;;;;;;28.42;17.08;;;14.50;99.90;;;;;;5141993;27;20114;-68
2022/09/24 09:03:16;;;;;;;25.25;16.60;;;14.50;99.90;;;;;;5143153;27;20051;-67
2022/09/24 09:05:54;;;;;;;25.77;15.88;;;14.60;99.90;;;;;;5143963;27;20368;-67
2022/09/24 09:08:42;;;;;;;28.60;17.27;;;14.60;99.90;;;;;;5147133;27;20030;-68
2022/09/24 09:11:12;;;;;;;26.98;16.38;;;14.70;99.90;;;;;;5145835;27;20037;-68
2022/09/24 09:14:24;;;;;;;24.98;15.70;;;14.60;99.90;;;;;;5145755;27;20038;-68
2022/09/24 09:17:08;;;;;;;23.88;14.95;;;14.60;99.90;;;;;;5124621;27;20054;-67
2022/09/24 09:19:34;;;;;;;23.90;14.95;;;14.50;99.90;;;;;;5146860;27;20051;-68
2022/09/24 09:22:12;;;;;;;27.40;14.93;;;14.50;99.90;;;;;;5149928;27;20039;-68
2022/09/24 09:24:49;;;;;;;26.88;15.18;;;14.50;99.90;;;;;;5146360;27;20081;-67
2022/09/24 09:27:16;;;;;;;20.90;11.48;;;14.50;99.90;;;;;;5146017;27;20483;-67
2022/09/24 09:29:49;;;;;;;22.88;12.15;;;14.50;99.90;;;;;;5145090;27;20042;-68
2022/09/24 09:32:39;;;;;;;20.38;12.73;;;14.50;99.90;;;;;;5143265;27;20487;-67
2022/09/24 09:35:30;;;;;;;22.88;12.05;;;14.60;99.90;;;;;;5153065;27;20039;-66
2022/09/24 09:38:22;;;;;;;23.05;12.18;;;14.60;99.90;;;;;;5156355;27;20046;-66
2022/09/24 09:41:01;;;;;;;13.90;4.43;;;14.60;99.90;;;;;;5156099;27;20122;-66
2022/09/24 09:43:27;;;;;;;16.83;4.85;;;14.60;99.90;;;;;;5155111;27;20107;-66
2022/09/24 09:46:14;;;;;;;11.90;4.82;;;14.60;99.90;;;;;;5155910;27;20079;-67
2022/09/24 09:48:47;;;;;;;14.65;5.35;;;14.60;99.90;;;;;;5156072;27;20030;-66
2022/09/24 09:51:18;;;;;;;11.93;3.70;;;14.60;99.90;;;;;;5154714;27;20038;-66
2022/09/24 09:53:58;;;;;;;14.23;4.05;;;14.60;99.90;;;;;;5151728;27;20042;-66
2022/09/24 09:56:28;;;;;;;11.88;2.85;;;14.70;99.90;;;;;;5132999;27;20042;-66
2022/09/24 09:59:07;;;;;;;15.45;2.50;;;14.70;99.90;;;;;;5133771;27;20518;-66
2022/09/24 10:01:36;;;;;;;19.45;2.53;;;14.70;99.90;;;;;;5135040;27;20456;-66
2022/09/24 10:04:03;;;;;;;15.40;2.53;;;14.70;99.90;;;;;;5134508;27;20081;-67
2022/09/24 10:06:34;;;;;;;8.65;2.53;;;14.70;99.90;;;;;;5133997;27;20031;-67
2022/09/24 10:09:25;;;;;;;14.45;2.55;;;14.80;99.90;;;;;;5135037;27;20042;-66
2022/09/24 10:11:51;;;;;;;15.15;2.60;;;14.80;99.90;;;;;;5134932;27;20071;-67
2022/09/24 10:14:18;;;;;;;13.60;2.50;;;14.80;99.90;;;;;;5134209;27;20063;-66
2022/09/24 10:16:48;;;;;;;16.65;2.42;;;14.80;99.90;;;;;;5134660;27;20042;-66
2022/09/24 10:19:19;;;;;;;8.98;2.13;;;14.80;99.90;;;;;;5134955;27;20043;-66
2022/09/24 10:21:45;;;;;;;12.20;1.92;;;14.80;99.90;;;;;;5144001;27;20049;-67
2022/09/24 10:24:21;;;;;;;12.35;3.53;;;14.90;99.90;;;;;;5155064;27;20035;-66
2022/09/24 10:26:48;;;;;;;9.90;1.90;;;15.00;99.90;;;;;;5155153;27;20065;-66
2022/09/24 10:32:12;;;;;;;12.32;2.35;;;15.00;99.90;;;;;;5124694;27;20078;-66
2022/09/24 10:34:37;;;;;;;10.13;2.78;;;15.00;99.90;;;;;;5154872;27;20045;-66
2022/09/24 10:37:14;;;;;;;18.63;2.78;;;15.00;99.90;;;;;;5154991;27;20035;-66
2022/09/24 10:39:40;;;;;;;11.90;2.38;;;15.00;99.90;;;;;;5154855;27;20552;-66
2022/09/24 10:42:22;;;;;;;13.25;2.35;;;15.00;99.90;;;;;;5154969;27;20043;-67
2022/09/24 10:44:49;;;;;;;12.23;2.80;;;15.10;99.90;;;;;;5154632;27;20042;-66
2022/09/24 10:47:29;;;;;;;15.98;1.98;;;15.10;99.90;;;;;;5154710;27;20035;-67
2022/09/24 10:50:24;;;;;;;9.88;2.17;;;15.10;99.90;;;;;;5154699;27;20042;-66
2022/09/24 10:52:59;;;;;;;9.10;2.08;;;15.20;99.90;;;;;;5153673;27;20043;-66
2022/09/24 10:55:44;;;;;;;8.23;1.95;;;15.10;99.90;;;;;;5154467;27;20126;-67
2022/09/24 10:58:25;;;;;;;12.20;2.63;;;15.20;99.90;;;;;;5154587;27;20048;-68
2022/09/24 11:01:15;;;;;;;7.10;1.58;;;15.20;99.90;;;;;;5154750;27;20117;-67
2022/09/24 11:04:09;;;;;;;9.30;2.60;;;15.30;99.90;;;;;;5154359;27;20045;-66
2022/09/24 11:06:47;;;;;;;8.73;1.95;;;15.30;99.90;;;;;;5154130;27;20041;-66
2022/09/24 11:09:12;;;;;;;6.80;1.58;;;15.30;99.90;;;;;;5154408;27;20043;-67
2022/09/24 11:11:56;;;;;;;10.05;2.00;;;15.30;99.90;;;;;;5154481;27;20087;-66
2022/09/24 11:14:45;;;;;;;5.88;1.98;;;15.40;99.90;;;;;;5153967;27;20041;-66
2022/09/24 11:17:22;;;;;;;7.90;1.92;;;15.30;99.90;;;;;;5153444;27;20046;-67
2022/09/24 11:19:47;;;;;;;13.52;2.13;;;15.30;99.90;;;;;;5154067;27;20070;-66
2022/09/24 11:22:16;;;;;;;7.68;1.73;;;15.30;99.90;;;;;;5154136;27;20069;-66
2022/09/24 11:25:06;;;;;;;7.32;1.67;;;15.20;99.90;;;;;;5153642;27;20395;-66
2022/09/24 11:27:38;;;;;;;12.05;2.33;;;15.40;99.90;;;;;;5153931;27;20057;-66
2022/09/24 11:30:16;;;;;;;13.18;2.70;;;15.30;99.90;;;;;;5154015;27;20069;-66
2022/09/24 11:33:05;;;;;;;14.55;2.50;;;15.40;99.90;;;;;;5154093;27;20043;-67
2022/09/24 11:36:05;;;;;;;11.10;2.13;;;15.30;99.90;;;;;;5153693;27;20030;-66
2022/09/24 11:39:09;;;;;;;11.68;2.00;;;15.30;99.90;;;;;;5142567;27;20582;-66
2022/09/24 11:42:02;;;;;;;13.55;2.10;;;15.30;99.90;;;;;;5153670;27;20042;-66
2022/09/24 11:45:01;;;;;;;12.48;2.40;;;15.20;99.90;;;;;;5153493;27;20035;-66
2022/09/24 11:48:01;;;;;;;10.30;2.35;;;15.20;99.90;;;;;;5152455;27;20167;-66
2022/09/24 11:50:58;;;;;;;11.90;2.10;;;15.20;99.90;;;;;;5153788;27;20095;-66
2022/09/24 11:53:42;;;;;;;11.95;2.70;;;15.30;99.90;;;;;;5146065;27;20035;-66
2022/09/24 11:56:30;;;;;;;12.55;2.80;;;15.20;99.90;;;;;;5143910;27;20035;-66
2022/09/24 11:59:07;;;;;;;11.35;2.20;;;15.20;99.90;;;;;;5141053;27;20039;-66
2022/09/24 12:01:36;;;;;;;7.75;1.90;;;15.30;99.90;;;;;;5131474;27;20515;-66
2022/09/24 12:04:12;;;;;;;12.55;2.05;;;15.30;99.90;;;;;;5132377;27;20091;-67
2022/09/24 12:06:53;;;;;;;11.88;2.10;;;15.30;99.90;;;;;;5131605;27;20086;-67
2022/09/24 12:09:30;;;;;;;9.50;1.77;;;15.40;99.90;;;;;;5132885;27;20039;-67
2022/09/24 12:12:19;;;;;;;10.05;1.70;;;15.40;99.90;;;;;;5149554;27;20053;-68
2022/09/24 12:14:49;;;;;;;8.60;1.52;;;15.30;99.90;;;;;;5152916;27;20199;-68
2022/09/24 12:17:38;;;;;;;7.35;1.65;;;15.30;99.90;;;;;;5151992;27;20087;-68
2022/09/24 12:20:28;;;;;;;10.13;1.67;;;15.20;99.90;;;;;;5151727;27;20043;-67
2022/09/24 12:23:06;;;;;;;7.53;1.70;;;15.20;99.90;;;;;;5152875;27;20087;-68
2022/09/24 12:25:38;;;;;;;9.82;1.50;;;15.20;99.90;;;;;;5151775;27;20035;-68
2022/09/24 12:28:08;;;;;;;7.68;1.65;;;15.30;99.90;;;;;;5151957;27;20042;-68
2022/09/24 12:33:38;;;;;;;9.52;1.60;;;15.50;99.90;;;;;;5141493;27;20681;-67
2022/09/24 12:36:41;;;;;;;6.05;1.25;;;15.50;99.90;;;;;;5139448;27;20031;-67
2022/09/24 12:39:11;;;;;;;7.10;1.40;;;15.50;99.90;;;;;;5147600;27;20495;-67
2022/09/24 12:41:41;;;;;;;8.80;1.83;;;15.60;99.90;;;;;;5134709;27;20043;-68
2022/09/24 12:44:10;;;;;;;5.55;1.58;;;15.70;99.90;;;;;;5136388;27;20042;-69
2022/09/24 12:46:43;;;;;;;7.13;1.45;;;15.70;99.90;;;;;;5136430;27;20564;-68
2022/09/24 12:49:24;;;;;;;2.90;1.40;;;15.70;99.90;;;;;;5136384;27;20495;-67
2022/09/24 12:51:56;;;;;;;4.85;1.40;;;15.60;99.90;;;;;;5134533;27;20050;-67
2022/09/24 12:54:27;;;;;;;9.85;1.88;;;15.60;99.90;;;;;;5136063;27;20450;-67
2022/09/24 12:57:20;;;;;;;4.45;1.30;;;15.60;99.90;;;;;;5136275;27;20035;-67
2022/09/24 13:00:24;;;;;;;9.75;1.80;;;15.70;99.90;;;;;;5136223;27;20046;-67
2022/09/24 13:02:51;;;;;;;6.32;1.50;;;15.90;99.90;;;;;;5134681;27;20071;-67
2022/09/24 13:05:25;;;;;;;6.78;1.83;;;15.90;99.90;;;;;;5135963;27;20051;-67